Terminal Aerodrome Forecast
Issued by NWS Wilmington, OH

Current Version | Previous Version | Graphics & Text | Print | Product List | Glossary On
Versions: 1 2 3 4 5 6 7 8 9 10 11 12 13 14 15 16 17 18 19 20
526
FTUS41 KILN 192337
TAFILN
TAF
KILN 192337Z 2000/2024 10007KT P6SM VCSH BKN100
     FM200300 11008KT 5SM -RA BR OVC025
      TEMPO 2005/2009 3SM RA BR OVC015
     FM201000 16008KT 3SM -RA BR OVC007
     FM201300 20007KT 4SM BR VCSH OVC005
     FM201500 22009KT P6SM OVC007
     FM202100 20007KT P6SM BKN018=

USA.gov is the U.S. government's official web portal to all federal, state and local government web resources and services.